createdAt,value
2018-05-04T00:02:30.000Z,11.90
2018-05-04T00:05:02.127Z,11.80
2018-05-04T00:07:34.207Z,11.70
2018-05-04T00:10:04.539Z,11.60
2018-05-04T00:12:35.464Z,11.50
2018-05-04T00:15:05.855Z,11.40
2018-05-04T00:17:36.732Z,11.30
2018-05-04T00:20:06.435Z,11.10
2018-05-04T00:22:37.227Z,11.10
2018-05-04T00:25:07.300Z,11.00
2018-05-04T00:27:37.000Z,10.90
2018-05-04T00:30:07.124Z,10.90
2018-05-04T00:32:36.835Z,10.80
2018-05-04T00:35:06.929Z,10.70
2018-05-04T00:37:36.668Z,10.70
2018-05-04T00:40:06.376Z,10.60
2018-05-04T00:42:36.416Z,10.50
2018-05-04T00:45:06.524Z,10.50
2018-05-04T00:47:36.579Z,10.50
2018-05-04T00:50:06.668Z,10.40
2018-05-04T00:52:36.699Z,10.40
2018-05-04T00:55:07.243Z,10.40
2018-05-04T00:57:37.333Z,10.40
2018-05-04T01:00:08.579Z,10.40
2018-05-04T01:02:39.405Z,10.30
2018-05-04T01:05:09.460Z,10.20
2018-05-04T01:07:40.042Z,10.20
2018-05-04T01:10:10.580Z,12.70
2018-05-04T01:12:46.233Z,10.20
2018-05-04T01:15:17.755Z,10.10
2018-05-04T01:17:48.212Z,10.10
2018-05-04T01:20:19.634Z,10.00
2018-05-04T01:22:51.936Z,10.00
2018-05-04T01:25:24.728Z,9.90
2018-05-04T01:27:55.565Z,9.90
2018-05-04T01:30:26.088Z,9.80
2018-05-04T01:32:56.693Z,9.70
2018-05-04T01:35:26.848Z,9.90
2018-05-04T01:37:56.967Z,9.90
2018-05-04T01:40:26.975Z,9.80
2018-05-04T01:42:56.886Z,9.70
2018-05-04T01:45:27.424Z,9.70
2018-05-04T01:47:57.784Z,9.70
2018-05-04T01:50:27.784Z,9.60
2018-05-04T01:52:57.806Z,9.70
2018-05-04T01:55:27.863Z,9.60
2018-05-04T01:57:57.622Z,9.60
2018-05-04T02:00:29.479Z,9.50
2018-05-04T02:03:01.308Z,9.50
2018-05-04T02:05:32.007Z,9.60
2018-05-04T02:08:02.504Z,9.50
2018-05-04T02:10:33.135Z,9.40
2018-05-04T02:13:03.512Z,9.50
2018-05-04T02:15:33.580Z,9.50
2018-05-04T02:18:04.271Z,9.50
2018-05-04T02:20:34.720Z,9.40
2018-05-04T02:23:04.767Z,9.40
2018-05-04T02:25:34.879Z,9.40
2018-05-04T02:28:05.400Z,9.30
2018-05-04T02:30:35.524Z,9.30
2018-05-04T02:33:05.649Z,9.20
2018-05-04T02:35:35.778Z,9.20
2018-05-04T02:38:06.935Z,9.10
2018-05-04T02:40:37.536Z,9.10
2018-05-04T02:43:07.829Z,9.00
2018-05-04T02:45:37.684Z,8.90
2018-05-04T02:48:08.356Z,8.80
2018-05-04T02:50:38.692Z,8.80
2018-05-04T02:53:09.085Z,8.70
2018-05-04T02:55:39.552Z,8.70
2018-05-04T02:58:10.791Z,8.50
2018-05-04T03:00:40.915Z,8.60
2018-05-04T03:03:12.112Z,8.60
2018-05-04T03:05:42.136Z,8.60
2018-05-04T03:08:12.984Z,8.60
2018-05-04T03:10:43.037Z,8.60
2018-05-04T03:13:13.105Z,8.50
2018-05-04T03:15:43.151Z,8.50
2018-05-04T03:18:14.266Z,8.40
2018-05-04T03:20:46.135Z,8.40
2018-05-04T03:23:16.252Z,8.30
2018-05-04T03:25:46.900Z,8.20
2018-05-04T03:28:16.996Z,8.20
2018-05-04T03:30:47.843Z,8.10
2018-05-04T03:33:18.556Z,8.10
2018-05-04T03:35:48.716Z,8.10
2018-05-04T03:38:20.187Z,8.00
2018-05-04T03:40:50.259Z,7.80
2018-05-04T03:43:22.341Z,7.90
2018-05-04T03:45:52.656Z,7.90
2018-05-04T03:48:22.415Z,7.90
2018-05-04T03:50:52.456Z,7.80
2018-05-04T03:53:24.655Z,7.80
2018-05-04T03:55:55.437Z,7.60
2018-05-04T04:02:47.559Z,7.70
2018-05-04T04:05:18.183Z,7.60
2018-05-04T04:07:47.908Z,7.70
2018-05-04T04:10:18.721Z,7.60
2018-05-04T04:12:48.438Z,7.70
2018-05-04T04:15:21.279Z,7.70
2018-05-04T04:17:52.313Z,7.70
2018-05-04T04:20:22.376Z,4.20
2018-05-04T04:22:52.856Z,7.80
2018-05-04T04:25:23.476Z,7.80
2018-05-04T04:27:54.194Z,7.80
2018-05-04T04:30:24.908Z,7.90
2018-05-04T04:32:55.136Z,7.90
2018-05-04T04:35:27.203Z,8.00
2018-05-04T04:37:58.651Z,8.10
2018-05-04T04:40:29.193Z,8.50
2018-05-04T04:43:00.939Z,8.70
2018-05-04T04:45:31.718Z,9.00
2018-05-04T04:48:03.048Z,9.40
2018-05-04T04:50:34.068Z,9.80
2018-05-04T04:53:05.883Z,10.30
2018-05-04T04:55:36.675Z,10.60
2018-05-04T04:58:07.912Z,11.00
2018-05-04T05:00:39.128Z,11.40
2018-05-04T05:03:09.494Z,11.80
2018-05-04T05:05:40.809Z,12.60
2018-05-04T05:08:11.668Z,13.90
2018-05-04T05:10:42.275Z,15.40
2018-05-04T05:13:13.070Z,16.80
2018-05-04T05:15:45.431Z,18.10
2018-05-04T05:18:16.392Z,19.10
2018-05-04T05:20:48.421Z,19.90
2018-05-04T05:23:19.905Z,20.80
2018-05-04T05:25:50.006Z,21.60
2018-05-04T05:28:21.031Z,22.50
2018-05-04T05:30:52.859Z,23.10
2018-05-04T05:33:23.337Z,23.70
2018-05-04T05:35:55.879Z,24.20
2018-05-04T05:38:26.900Z,24.80
2018-05-04T05:40:57.449Z,25.40
2018-05-04T05:43:30.074Z,26.00
2018-05-04T05:46:00.151Z,26.60
2018-05-04T05:48:30.483Z,27.20
2018-05-04T05:51:00.873Z,28.00
2018-05-04T05:53:31.316Z,28.60
2018-05-04T05:56:02.026Z,29.00
2018-05-04T05:58:32.841Z,29.40
2018-05-04T06:01:03.141Z,29.50
2018-05-04T06:03:39.821Z,29.60
2018-05-04T06:06:10.029Z,29.40
2018-05-04T06:08:40.751Z,29.70
2018-05-04T06:14:42.861Z,30.70
2018-05-04T06:17:12.840Z,31.10
2018-05-04T06:19:45.399Z,31.40
2018-05-04T06:22:15.479Z,31.70
2018-05-04T06:24:45.963Z,31.80
2018-05-04T06:27:16.255Z,32.00
2018-05-04T06:29:46.447Z,31.80
2018-05-04T06:32:16.916Z,32.10
2018-05-04T06:34:46.997Z,32.40
2018-05-04T06:37:17.380Z,32.80
2018-05-04T06:39:47.762Z,33.40
2018-05-04T06:42:17.756Z,34.30
2018-05-04T06:44:48.080Z,35.00
2018-05-04T06:47:18.291Z,35.30
2018-05-04T06:49:48.394Z,36.00
2018-05-04T06:52:20.532Z,36.70
2018-05-04T06:54:50.982Z,35.40
2018-05-04T06:57:21.048Z,37.00
2018-05-04T06:59:51.320Z,37.60
2018-05-04T07:02:21.756Z,38.00
2018-05-04T07:04:51.808Z,38.40
2018-05-04T07:07:21.927Z,38.50
2018-05-04T07:09:52.843Z,38.30
2018-05-04T07:12:23.739Z,38.80
2018-05-04T07:14:56.090Z,38.70
2018-05-04T07:17:27.083Z,38.70
2018-05-04T07:20:09.049Z,39.00
2018-05-04T07:22:40.139Z,39.10
2018-05-04T07:25:10.760Z,39.30
2018-05-04T07:27:42.808Z,39.40
2018-05-04T07:30:13.214Z,39.90
2018-05-04T07:32:43.656Z,39.70
2018-05-04T07:35:14.044Z,39.90
2018-05-04T07:37:48.653Z,39.80
2018-05-04T07:40:19.344Z,40.10
2018-05-04T07:42:50.152Z,40.40
2018-05-04T07:45:20.259Z,40.70
2018-05-04T07:47:50.797Z,40.60
2018-05-04T07:50:20.904Z,38.50
2018-05-04T07:53:00.238Z,38.00
2018-05-04T07:55:30.356Z,37.00
2018-05-04T07:58:01.657Z,35.90
2018-05-04T08:00:33.224Z,35.20
2018-05-04T08:03:04.735Z,35.80
2018-05-04T08:05:34.840Z,36.00
2018-05-04T08:08:12.880Z,35.70
2018-05-04T08:10:43.715Z,35.40
2018-05-04T08:16:47.346Z,33.50
2018-05-04T08:19:18.605Z,33.50
2018-05-04T08:21:49.353Z,33.60
2018-05-04T08:24:21.764Z,33.00
2018-05-04T08:26:54.220Z,32.20
2018-05-04T08:29:23.938Z,32.20
2018-05-04T08:31:54.784Z,32.40
2018-05-04T08:34:24.508Z,32.30
2018-05-04T08:36:55.505Z,32.20
2018-05-04T08:39:26.220Z,32.00
2018-05-04T08:41:56.587Z,32.00
2018-05-04T08:44:29.780Z,31.60
2018-05-04T08:47:00.765Z,28.00
2018-05-04T08:49:31.390Z,30.10
2018-05-04T08:52:02.622Z,31.30
2018-05-04T08:54:33.366Z,31.90
2018-05-04T08:57:03.831Z,32.70
2018-05-04T08:59:33.580Z,33.00
2018-05-04T09:02:07.404Z,32.90
2018-05-04T09:04:38.627Z,32.70
2018-05-04T09:07:11.823Z,32.70
2018-05-04T09:09:41.905Z,32.50
2018-05-04T09:12:12.753Z,32.60
2018-05-04T09:14:43.668Z,32.80
2018-05-04T09:17:14.396Z,33.10
2018-05-04T09:19:45.520Z,33.80
2018-05-04T09:22:15.937Z,33.70
2018-05-04T09:24:46.522Z,32.30
2018-05-04T09:27:17.137Z,30.90
2018-05-04T09:29:47.400Z,30.10
2018-05-04T09:32:17.606Z,29.40
2018-05-04T09:37:46.269Z,28.20
2018-05-04T09:40:16.591Z,28.10
2018-05-04T09:42:47.381Z,27.90
2018-05-04T09:45:17.604Z,28.10
2018-05-04T09:50:56.814Z,29.20
2018-05-04T09:53:33.893Z,29.00
2018-05-04T09:56:04.526Z,29.20
2018-05-04T09:58:34.811Z,30.00
2018-05-04T10:01:04.536Z,30.40
2018-05-04T10:03:34.823Z,30.10
2018-05-04T10:06:04.975Z,29.20
2018-05-04T10:08:35.016Z,28.70
2018-05-04T10:11:05.444Z,28.10
2018-05-04T10:13:35.631Z,27.80
2018-05-04T10:16:12.456Z,27.70
2018-05-04T10:18:43.045Z,27.90
2018-05-04T10:21:13.068Z,27.90
2018-05-04T10:23:43.504Z,29.50
2018-05-04T10:26:18.318Z,27.30
2018-05-04T10:28:48.457Z,27.00
2018-05-04T10:31:18.635Z,26.70
2018-05-04T10:33:48.801Z,26.90
2018-05-04T10:36:18.908Z,27.20
2018-05-04T10:38:49.033Z,27.70
2018-05-04T10:41:19.193Z,28.00
2018-05-04T10:43:49.264Z,27.80
2018-05-04T10:46:19.275Z,28.00
2018-05-04T10:48:49.700Z,27.70
2018-05-04T10:51:19.790Z,30.40
2018-05-04T10:53:49.858Z,28.40
2018-05-04T10:56:20.059Z,30.80
2018-05-04T10:58:49.888Z,28.30
2018-05-04T11:01:20.004Z,29.50
2018-05-04T11:03:55.763Z,29.30
2018-05-04T11:06:26.053Z,29.30
2018-05-04T11:08:56.323Z,29.60
2018-05-04T11:11:26.501Z,29.90
2018-05-04T11:13:56.591Z,30.40
2018-05-04T11:16:26.857Z,30.40
2018-05-04T11:18:59.239Z,30.60
2018-05-04T11:21:29.520Z,31.00
2018-05-04T11:24:47.868Z,31.50
2018-05-04T11:30:22.693Z,31.50
2018-05-04T11:32:53.518Z,31.40
2018-05-04T11:35:23.687Z,31.20
2018-05-04T11:37:54.501Z,31.00
2018-05-04T11:40:24.272Z,31.20
2018-05-04T11:42:55.169Z,31.50
2018-05-04T11:45:26.144Z,31.90
2018-05-04T11:47:56.271Z,32.20
2018-05-04T11:50:25.988Z,32.60
2018-05-04T11:52:56.745Z,33.00
2018-05-04T11:55:36.077Z,33.10
2018-05-04T11:58:18.379Z,32.50
2018-05-04T12:00:48.731Z,32.10
2018-05-04T12:03:18.795Z,32.10
2018-05-04T12:05:49.118Z,32.10
2018-05-04T12:08:20.479Z,32.50
2018-05-04T12:10:52.107Z,32.60
2018-05-04T12:13:22.924Z,32.50
2018-05-04T12:15:54.008Z,32.50
2018-05-04T12:18:32.421Z,32.00
2018-05-04T12:21:03.072Z,31.60
2018-05-04T12:23:33.413Z,31.60
2018-05-04T12:26:03.593Z,31.70
2018-05-04T12:28:38.384Z,31.40
2018-05-04T12:31:11.776Z,31.50
2018-05-04T12:33:42.261Z,31.50
2018-05-04T12:36:15.679Z,31.60
2018-05-04T12:38:45.800Z,31.40
2018-05-04T12:41:16.692Z,31.00
2018-05-04T12:43:47.475Z,31.10
2018-05-04T12:49:07.048Z,31.50
2018-05-04T12:51:40.671Z,31.40
2018-05-04T12:54:12.665Z,31.20
2018-05-04T13:03:18.496Z,30.10
2018-05-04T13:05:49.247Z,30.20
2018-05-04T13:08:19.984Z,30.00
2018-05-04T13:10:50.043Z,29.50
2018-05-04T13:13:20.220Z,29.00
2018-05-04T13:15:51.056Z,28.80
2018-05-04T13:18:22.761Z,28.90
2018-05-04T13:20:52.832Z,29.00
2018-05-04T13:23:22.953Z,29.10
2018-05-04T13:25:53.020Z,29.00
2018-05-04T13:28:30.884Z,28.60
2018-05-04T13:31:01.805Z,28.20
2018-05-04T13:33:33.421Z,28.10
2018-05-04T13:36:11.920Z,27.80
2018-05-04T13:38:42.223Z,27.70
2018-05-04T13:41:15.011Z,27.50
2018-05-04T13:43:46.013Z,27.60
2018-05-04T13:46:30.308Z,27.70
2018-05-04T13:49:02.208Z,27.70
2018-05-04T13:51:32.737Z,27.40
2018-05-04T13:54:02.841Z,27.10
2018-05-04T13:56:33.327Z,27.00
2018-05-04T13:59:03.548Z,26.80
2018-05-04T14:01:34.560Z,26.60
2018-05-04T14:04:19.750Z,26.40
2018-05-04T14:06:50.307Z,26.00
2018-05-04T14:09:21.972Z,26.00
2018-05-04T14:11:52.300Z,26.00
2018-05-04T14:14:22.440Z,25.70
2018-05-04T14:16:55.151Z,25.90
2018-05-04T14:19:25.642Z,25.80
2018-05-04T14:21:56.058Z,25.50
2018-05-04T14:24:26.155Z,25.50
2018-05-04T14:26:55.863Z,25.50
2018-05-04T14:29:26.079Z,25.30
2018-05-04T14:31:56.204Z,25.30
2018-05-04T14:34:26.220Z,28.90
2018-05-04T14:37:11.811Z,25.00
2018-05-04T14:39:46.850Z,25.00
2018-05-04T14:42:16.961Z,25.00
2018-05-04T14:44:47.081Z,25.00
2018-05-04T14:47:18.240Z,25.10
2018-05-04T14:49:48.848Z,25.00
2018-05-04T14:52:18.977Z,24.80
2018-05-04T14:54:50.407Z,24.70
2018-05-04T14:57:20.535Z,24.50
2018-05-04T14:59:50.671Z,24.40
2018-05-04T15:02:20.841Z,24.30
2018-05-04T15:04:50.972Z,24.30
2018-05-04T15:07:21.176Z,24.20
2018-05-04T15:09:51.335Z,24.20
2018-05-04T15:12:21.443Z,24.20
2018-05-04T15:14:51.639Z,24.20
2018-05-04T15:17:21.840Z,24.10
2018-05-04T15:19:52.981Z,23.90
2018-05-04T15:22:24.003Z,23.70
2018-05-04T15:24:56.161Z,23.60
2018-05-04T15:27:28.851Z,23.60
2018-05-04T15:29:58.958Z,23.60
2018-05-04T15:32:29.132Z,23.50
2018-05-04T15:34:59.405Z,23.40
2018-05-04T15:37:29.647Z,23.40
2018-05-04T15:40:00.070Z,23.30
2018-05-04T15:42:30.204Z,23.40
2018-05-04T15:45:00.482Z,23.30
2018-05-04T15:47:30.841Z,23.30
2018-05-04T15:50:05.653Z,23.10
2018-05-04T15:52:35.979Z,23.10
2018-05-04T15:55:06.330Z,23.10
2018-05-04T15:57:36.640Z,23.10
2018-05-04T16:00:07.140Z,22.80
2018-05-04T16:02:37.241Z,22.80
2018-05-04T16:05:08.751Z,22.70
2018-05-04T16:07:39.163Z,22.70
2018-05-04T16:10:09.807Z,22.60
2018-05-04T16:12:39.924Z,22.50
2018-05-04T16:15:10.324Z,22.60
2018-05-04T16:17:40.354Z,22.60
2018-05-04T16:20:11.682Z,22.50
2018-05-04T16:22:41.876Z,22.30
2018-05-04T16:25:11.993Z,22.40
2018-05-04T16:27:42.088Z,22.50
2018-05-04T16:30:12.210Z,22.40
2018-05-04T16:32:44.646Z,22.40
2018-05-04T16:35:14.879Z,22.30
2018-05-04T16:37:45.115Z,22.00
2018-05-04T16:40:15.614Z,22.00
2018-05-04T16:42:54.167Z,22.00
2018-05-04T16:45:24.293Z,22.00
2018-05-04T16:47:59.112Z,21.90
2018-05-04T16:50:30.469Z,21.70
2018-05-04T16:53:02.180Z,21.90
2018-05-04T16:55:35.338Z,21.80
2018-05-04T16:58:05.740Z,21.70
2018-05-04T17:00:38.408Z,21.60
2018-05-04T17:03:11.267Z,21.60
2018-05-04T17:05:42.397Z,21.50
2018-05-04T17:08:12.819Z,21.30
2018-05-04T17:10:43.030Z,21.30
2018-05-04T17:13:13.131Z,21.30
2018-05-04T17:15:55.794Z,21.30
2018-05-04T17:18:26.003Z,21.10
2018-05-04T17:21:07.326Z,21.30
2018-05-04T17:23:37.903Z,21.20
2018-05-04T17:29:18.945Z,21.10
2018-05-04T17:31:50.388Z,21.00
2018-05-04T17:34:21.164Z,20.90
2018-05-04T17:36:52.220Z,20.70
2018-05-04T17:39:22.613Z,20.80
2018-05-04T17:41:57.143Z,20.70
2018-05-04T17:44:27.668Z,20.60
2018-05-04T17:46:58.531Z,20.60
2018-05-04T17:49:29.344Z,20.50
2018-05-04T17:52:00.058Z,20.40
2018-05-04T17:54:30.204Z,20.40
2018-05-04T17:57:00.936Z,20.20
2018-05-04T17:59:31.672Z,20.20
2018-05-04T18:02:01.924Z,20.10
2018-05-04T18:04:32.175Z,20.10
2018-05-04T18:07:03.059Z,19.80
2018-05-04T18:09:53.039Z,19.90
2018-05-04T18:12:23.603Z,19.70
2018-05-04T18:14:53.807Z,19.60
2018-05-04T18:17:24.225Z,19.40
2018-05-04T18:19:54.876Z,19.50
2018-05-04T18:22:25.810Z,19.40
2018-05-04T18:24:56.826Z,19.30
2018-05-04T18:27:27.513Z,19.10
2018-05-04T18:29:58.133Z,19.00
2018-05-04T18:32:29.174Z,19.00
2018-05-04T18:34:59.677Z,18.80
2018-05-04T18:37:30.083Z,18.80
2018-05-04T18:40:01.036Z,18.70
2018-05-04T18:42:32.395Z,18.50
2018-05-04T18:45:02.777Z,18.40
2018-05-04T18:47:36.603Z,18.40
2018-05-04T18:50:07.310Z,18.30
2018-05-04T18:52:37.728Z,18.10
2018-05-04T18:55:07.835Z,18.00
2018-05-04T18:57:38.136Z,17.90
2018-05-04T19:00:09.200Z,19.20
2018-05-04T19:02:43.856Z,17.60
2018-05-04T19:05:14.220Z,13.80
2018-05-04T19:07:44.361Z,17.30
2018-05-04T19:10:20.284Z,17.10
2018-05-04T19:12:53.594Z,17.10
2018-05-04T19:15:23.815Z,17.00
2018-05-04T19:17:53.882Z,16.90
2018-05-04T19:20:24.055Z,16.90
2018-05-04T19:22:55.592Z,16.70
2018-05-04T19:25:26.342Z,16.60
2018-05-04T19:27:57.513Z,16.60
2018-05-04T19:30:31.393Z,16.50
2018-05-04T19:33:01.677Z,16.40
2018-05-04T19:35:31.826Z,16.30
2018-05-04T19:38:01.956Z,16.30
2018-05-04T19:40:33.349Z,16.30
2018-05-04T19:43:04.364Z,16.20
2018-05-04T19:45:34.902Z,16.30
2018-05-04T19:48:05.155Z,16.20
2018-05-04T19:53:12.511Z,16.20
2018-05-04T19:55:50.524Z,16.10
2018-05-04T19:58:20.638Z,16.10
2018-05-04T20:00:50.758Z,16.10
2018-05-04T20:03:20.890Z,16.00
2018-05-04T20:05:50.996Z,16.00
2018-05-04T20:08:21.199Z,15.90
2018-05-04T20:10:51.774Z,15.80
2018-05-04T20:13:21.972Z,15.90
2018-05-04T20:16:10.536Z,15.90
2018-05-04T20:18:41.552Z,15.80
2018-05-04T20:21:12.636Z,15.70
2018-05-04T20:23:43.138Z,15.80
2018-05-04T20:26:13.363Z,15.80
2018-05-04T20:28:44.187Z,15.80
2018-05-04T20:31:14.320Z,15.80
2018-05-04T20:33:44.454Z,15.80
2018-05-04T20:36:14.548Z,15.80
2018-05-04T20:38:44.687Z,15.80
2018-05-04T20:41:22.591Z,15.70
2018-05-04T20:43:52.712Z,15.70
2018-05-04T20:46:22.819Z,15.80
2018-05-04T20:48:52.530Z,15.70
2018-05-04T20:51:22.755Z,15.70
2018-05-04T20:56:34.264Z,15.60
2018-05-04T20:59:04.780Z,15.60
2018-05-04T21:01:36.143Z,15.50
2018-05-04T21:04:06.774Z,15.50
2018-05-04T21:06:37.719Z,15.50
2018-05-04T21:09:08.972Z,15.50
2018-05-04T21:11:39.695Z,15.50
2018-05-04T21:14:11.085Z,15.50
2018-05-04T21:16:41.472Z,15.50
2018-05-04T21:19:12.815Z,15.50
2018-05-04T21:21:43.690Z,15.40
2018-05-04T21:24:14.080Z,15.40
2018-05-04T21:26:44.188Z,15.30
2018-05-04T21:29:14.323Z,15.30
2018-05-04T21:31:45.361Z,15.20
2018-05-04T21:34:15.768Z,15.20
2018-05-04T21:36:45.916Z,15.20
2018-05-04T21:39:16.142Z,15.20
2018-05-04T21:41:46.773Z,15.20
2018-05-04T21:44:16.799Z,15.20
2018-05-04T21:46:46.896Z,15.10
2018-05-04T21:49:17.012Z,15.10
2018-05-04T21:51:47.143Z,15.10
2018-05-04T21:54:17.243Z,15.10
2018-05-04T21:56:47.380Z,15.20
2018-05-04T21:59:17.407Z,15.10
2018-05-04T22:01:47.467Z,15.10
2018-05-04T22:04:17.635Z,15.10
2018-05-04T22:06:47.751Z,15.10
2018-05-04T22:09:19.000Z,15.10
2018-05-04T22:11:49.128Z,15.10
2018-05-04T22:14:19.240Z,15.10
2018-05-04T22:16:49.297Z,15.10
2018-05-04T22:19:19.483Z,15.10
2018-05-04T22:21:49.592Z,15.10
2018-05-04T22:24:19.835Z,15.00
2018-05-04T22:26:50.039Z,15.00
2018-05-04T22:29:20.145Z,14.90
2018-05-04T22:31:50.284Z,14.90
2018-05-04T22:34:20.299Z,14.80
2018-05-04T22:36:51.175Z,14.80
2018-05-04T22:39:21.367Z,14.70
2018-05-04T22:41:52.188Z,14.60
2018-05-04T22:44:22.424Z,14.50
2018-05-04T22:46:52.511Z,14.40
2018-05-04T22:49:22.654Z,14.40
2018-05-04T22:51:53.083Z,14.30
2018-05-04T22:54:23.115Z,14.20
2018-05-04T22:56:53.162Z,14.10
2018-05-04T22:59:23.751Z,14.10
2018-05-04T23:01:53.973Z,14.00
2018-05-04T23:04:24.106Z,14.00
2018-05-04T23:06:54.378Z,14.10
2018-05-04T23:09:25.692Z,14.20
2018-05-04T23:11:57.332Z,14.20
2018-05-04T23:14:27.963Z,14.20
2018-05-04T23:16:58.265Z,14.20
2018-05-04T23:19:29.020Z,14.10
2018-05-04T23:21:59.536Z,14.00
2018-05-04T23:24:31.243Z,14.00
2018-05-04T23:27:01.324Z,14.00
2018-05-04T23:29:33.612Z,13.90
2018-05-04T23:32:04.928Z,13.90
2018-05-04T23:34:35.964Z,13.80
2018-05-04T23:37:08.645Z,13.70
2018-05-04T23:39:40.912Z,13.60
2018-05-04T23:42:11.681Z,13.50
2018-05-04T23:44:42.679Z,13.40
2018-05-04T23:47:14.769Z,13.20
2018-05-04T23:49:46.231Z,13.10
2018-05-04T23:52:17.685Z,13.10
2018-05-04T23:54:50.792Z,12.90
2018-05-04T23:57:20.879Z,12.80
2018-05-04T23:59:51.217Z,12.70
